Time,TemperatureF,DewpointF,PressureIn,WindDirection,WindDirectionDegrees,WindSpeedMPH,WindSpeedGustMPH,Humidity,HourlyPrecipIn,Conditions,Clouds,dailyrainin,SoftwareType,DateUTC
2013-03-10 00:01:00,45.0,35.0,29.92,South,190,2.0,10.0,69,0.00,,,0.01,,2013-03-10 05:01:00,
2013-03-10 00:11:00,45.0,35.0,29.92,South,190,2.0,10.0,69,0.00,,,0.01,,2013-03-10 05:11:00,
2013-03-10 00:22:00,45.0,36.0,29.92,South,169,3.0,8.0,70,0.00,,,0.01,,2013-03-10 05:22:00,
2013-03-10 00:31:00,45.0,36.0,29.92,South,169,3.0,8.0,70,0.00,,,0.01,,2013-03-10 05:31:00,
2013-03-10 00:42:00,44.0,35.0,29.90,South,181,3.0,6.0,71,0.00,,,0.01,,2013-03-10 05:42:00,
2013-03-10 00:52:00,44.0,35.0,29.90,South,181,3.0,6.0,71,0.00,,,0.01,,2013-03-10 05:52:00,
2013-03-10 01:01:00,44.0,35.0,29.90,SSW,209,3.0,7.0,71,0.00,,,0.01,,2013-03-10 06:01:00,
2013-03-10 01:11:00,44.0,35.0,29.90,SSW,209,3.0,7.0,71,0.00,,,0.01,,2013-03-10 06:11:00,
2013-03-10 01:22:00,44.0,35.0,29.90,SSW,202,2.0,7.0,71,0.00,,,0.01,,2013-03-10 06:22:00,
2013-03-10 01:32:00,44.0,35.0,29.89,South,188,3.0,8.0,71,0.00,,,0.01,,2013-03-10 06:32:00,
2013-03-10 01:42:00,44.0,35.0,29.89,South,188,3.0,8.0,71,0.00,,,0.01,,2013-03-10 06:42:00,
2013-03-10 01:51:00,44.0,35.0,29.89,SE,134,3.0,7.0,70,0.00,,,0.01,,2013-03-10 06:51:00,
2013-03-10 03:02:00,44.0,35.0,29.88,South,173,4.0,8.0,71,0.00,,,0.01,,2013-03-10 07:02:00,
2013-03-10 03:11:00,44.0,35.0,29.88,South,173,4.0,8.0,71,0.00,,,0.01,,2013-03-10 07:11:00,
2013-03-10 03:21:00,45.0,36.0,29.88,South,185,3.0,9.0,71,0.00,,,0.01,,2013-03-10 07:21:00,
2013-03-10 03:31:00,45.0,36.0,29.88,South,187,3.0,7.0,71,0.00,,,0.01,,2013-03-10 07:31:00,
2013-03-10 03:42:00,46.0,37.0,29.87,SW,222,4.0,8.0,70,0.00,,,0.01,,2013-03-10 07:42:00,
2013-03-10 03:52:00,46.0,37.0,29.87,SW,222,4.0,8.0,70,0.00,,,0.01,,2013-03-10 07:52:00,
2013-03-10 04:01:00,46.0,36.0,29.86,SSW,205,4.0,8.0,69,0.00,,,0.01,,2013-03-10 08:01:00,
2013-03-10 04:11:00,46.0,36.0,29.86,SSW,205,4.0,8.0,69,0.00,,,0.01,,2013-03-10 08:11:00,
2013-03-10 04:21:00,46.0,37.0,29.86,South,180,4.0,7.0,70,0.00,,,0.01,,2013-03-10 08:21:00,
2013-03-10 04:31:00,48.0,38.0,29.85,SSW,203,6.0,13.0,67,0.00,,,0.01,,2013-03-10 08:31:00,
2013-03-10 04:42:00,48.0,38.0,29.85,SSW,203,6.0,13.0,67,0.00,,,0.01,,2013-03-10 08:42:00,
2013-03-10 04:51:00,48.0,38.0,29.85,SSW,196,7.0,16.0,68,0.00,,,0.01,,2013-03-10 08:51:00,
2013-03-10 05:01:00,48.0,38.0,29.85,South,186,7.0,12.0,67,0.00,,,0.01,,2013-03-10 09:01:00,
2013-03-10 05:11:00,48.0,38.0,29.85,South,186,7.0,12.0,67,0.00,,,0.01,,2013-03-10 09:11:00,
2013-03-10 05:21:00,48.0,38.0,29.85,SSW,211,7.0,10.0,68,0.00,,,0.01,,2013-03-10 09:21:00,
2013-03-10 05:31:00,48.0,38.0,29.85,South,188,5.0,10.0,69,0.00,,,0.01,,2013-03-10 09:31:00,
2013-03-10 05:41:00,48.0,38.0,29.85,South,188,5.0,10.0,69,0.00,,,0.01,,2013-03-10 09:41:00,
2013-03-10 05:51:00,48.0,38.0,29.85,SW,220,5.0,12.0,68,0.00,,,0.01,,2013-03-10 09:51:00,
2013-03-10 06:01:00,49.0,39.0,29.85,SSW,200,6.0,12.0,67,0.00,,,0.01,,2013-03-10 10:01:00,
2013-03-10 06:11:00,49.0,39.0,29.85,SSW,200,6.0,12.0,67,0.00,,,0.01,,2013-03-10 10:11:00,
2013-03-10 06:21:00,48.0,38.0,29.86,South,186,5.0,9.0,68,0.00,,,0.01,,2013-03-10 10:21:00,
2013-03-10 06:32:00,48.0,38.0,29.86,SSW,211,5.0,13.0,69,0.00,,,0.01,,2013-03-10 10:32:00,
2013-03-10 06:42:00,49.0,39.0,29.86,SSW,199,8.0,14.0,68,0.00,,,0.01,,2013-03-10 10:42:00,
2013-03-10 06:52:00,49.0,39.0,29.86,SSW,199,8.0,14.0,68,0.00,,,0.01,,2013-03-10 10:52:00,
2013-03-10 07:01:00,49.0,39.0,29.87,SW,231,8.0,15.0,68,0.00,,,0.01,,2013-03-10 11:01:00,
2013-03-10 07:12:00,49.0,39.0,29.87,SW,231,8.0,15.0,68,0.00,,,0.01,,2013-03-10 11:12:00,
2013-03-10 07:21:00,49.0,39.0,29.87,SSW,207,6.0,13.0,69,0.00,,,0.01,,2013-03-10 11:21:00,
2013-03-10 07:32:00,49.0,40.0,29.87,SSW,202,5.0,11.0,70,0.00,,,0.01,,2013-03-10 11:32:00,
2013-03-10 07:42:00,49.0,40.0,29.87,SSW,202,5.0,11.0,70,0.00,,,0.01,,2013-03-10 11:42:00,
2013-03-10 07:52:00,49.0,40.0,29.88,SSW,201,6.0,9.0,71,0.00,,,0.01,,2013-03-10 11:52:00,
2013-03-10 08:01:00,49.0,40.0,29.87,SSW,203,6.0,14.0,70,0.00,,,0.01,,2013-03-10 12:01:00,
2013-03-10 08:11:00,49.0,40.0,29.87,SSW,203,6.0,14.0,70,0.00,,,0.01,,2013-03-10 12:11:00,
2013-03-10 08:21:00,49.0,40.0,29.87,SSW,213,7.0,10.0,72,0.00,,,0.01,,2013-03-10 12:21:00,
2013-03-10 08:31:00,48.0,40.0,29.86,SSW,201,6.0,11.0,73,0.00,,,0.01,,2013-03-10 12:31:00,
2013-03-10 08:42:00,48.0,40.0,29.86,SSW,201,6.0,11.0,73,0.00,,,0.01,,2013-03-10 12:42:00,
2013-03-10 08:51:00,48.0,40.0,29.87,SSW,194,3.0,10.0,75,0.00,,,0.01,,2013-03-10 12:51:00,
2013-03-10 09:01:00,48.0,40.0,29.87,SSW,192,4.0,8.0,74,0.00,,,0.01,,2013-03-10 13:01:00,
2013-03-10 09:11:00,48.0,40.0,29.87,SSW,192,4.0,8.0,74,0.00,,,0.01,,2013-03-10 13:11:00,
2013-03-10 09:21:00,48.0,40.0,29.86,South,184,3.0,7.0,74,0.00,,,0.01,,2013-03-10 13:21:00,
2013-03-10 09:31:00,47.0,40.0,29.86,SSW,195,2.0,6.0,76,0.00,,,0.01,,2013-03-10 13:31:00,
2013-03-10 09:41:00,47.0,40.0,29.86,SSW,195,2.0,6.0,76,0.00,,,0.01,,2013-03-10 13:41:00,
2013-03-10 09:52:00,48.0,40.0,29.86,South,175,4.0,9.0,74,0.00,,,0.01,,2013-03-10 13:52:00,
2013-03-10 10:01:00,48.0,40.0,29.86,SSE,156,4.0,8.0,74,0.00,,,0.01,,2013-03-10 14:01:00,
2013-03-10 10:11:00,48.0,40.0,29.86,SSE,156,4.0,8.0,74,0.00,,,0.01,,2013-03-10 14:11:00,
2013-03-10 10:21:00,49.0,41.0,29.86,South,172,3.0,8.0,74,0.00,,,0.01,,2013-03-10 14:21:00,
2013-03-10 10:32:00,49.0,41.0,29.86,South,184,4.0,9.0,73,0.00,,,0.01,,2013-03-10 14:32:00,
2013-03-10 10:41:00,49.0,41.0,29.86,South,184,4.0,9.0,73,0.00,,,0.01,,2013-03-10 14:41:00,
2013-03-10 10:51:00,49.0,41.0,29.87,SSW,202,5.0,9.0,74,0.00,,,0.01,,2013-03-10 14:51:00,
2013-03-10 11:01:00,49.0,41.0,29.87,SSE,161,3.0,9.0,75,0.00,,,0.01,,2013-03-10 15:01:00,
2013-03-10 11:11:00,49.0,41.0,29.87,SSE,161,3.0,9.0,75,0.00,,,0.01,,2013-03-10 15:11:00,
2013-03-10 11:21:00,49.0,41.0,29.86,SSW,192,3.0,8.0,75,0.00,,,0.01,,2013-03-10 15:21:00,
2013-03-10 11:32:00,50.0,42.0,29.86,South,184,3.0,6.0,75,0.00,,,0.01,,2013-03-10 15:32:00,
2013-03-10 11:42:00,50.0,42.0,29.86,South,184,3.0,6.0,75,0.00,,,0.01,,2013-03-10 15:42:00,
2013-03-10 11:51:00,50.0,42.0,29.86,South,180,3.0,7.0,74,0.00,,,0.01,,2013-03-10 15:51:00,
2013-03-10 12:01:00,51.0,43.0,29.85,SSW,193,3.0,7.0,75,0.00,,,0.01,,2013-03-10 16:01:00,
2013-03-10 12:12:00,51.0,43.0,29.85,SSW,193,3.0,7.0,75,0.00,,,0.01,,2013-03-10 16:12:00,
2013-03-10 12:21:00,51.0,43.0,29.85,SSW,194,3.0,8.0,74,0.00,,,0.01,,2013-03-10 16:21:00,
2013-03-10 12:32:00,51.0,43.0,29.84,SSE,166,3.0,7.0,75,0.00,,,0.01,,2013-03-10 16:32:00,
2013-03-10 12:41:00,51.0,43.0,29.84,SSE,166,3.0,7.0,75,0.00,,,0.01,,2013-03-10 16:41:00,
2013-03-10 12:51:00,52.0,44.0,29.83,SSW,193,3.0,8.0,75,0.00,,,0.01,,2013-03-10 16:51:00,
2013-03-10 13:01:00,53.0,45.0,29.83,SSW,193,4.0,7.0,75,0.00,,,0.01,,2013-03-10 17:01:00,
2013-03-10 13:11:00,53.0,45.0,29.83,SSW,193,4.0,7.0,75,0.00,,,0.01,,2013-03-10 17:11:00,
2013-03-10 13:21:00,55.0,47.0,29.82,South,186,4.0,8.0,75,0.00,,,0.01,,2013-03-10 17:21:00,
2013-03-10 13:31:00,57.0,48.0,29.83,SSW,194,6.0,10.0,71,0.00,,,0.01,,2013-03-10 17:31:00,
2013-03-10 13:41:00,57.0,48.0,29.83,SSW,194,6.0,10.0,71,0.00,,,0.01,,2013-03-10 17:41:00,
2013-03-10 13:51:00,56.0,47.0,29.84,South,182,4.0,9.0,73,0.00,,,0.01,,2013-03-10 17:51:00,
2013-03-10 14:01:00,58.0,49.0,29.84,SSW,200,5.0,12.0,73,0.00,,,0.01,,2013-03-10 18:01:00,
2013-03-10 14:11:00,58.0,49.0,29.84,SSW,200,5.0,12.0,73,0.00,,,0.01,,2013-03-10 18:11:00,
2013-03-10 14:21:00,58.0,49.0,29.82,SSW,192,3.0,10.0,71,0.00,,,0.01,,2013-03-10 18:21:00,
2013-03-10 14:32:00,59.0,50.0,29.80,SSW,197,4.0,13.0,71,0.00,,,0.01,,2013-03-10 18:32:00,
2013-03-10 14:42:00,59.0,50.0,29.80,SSW,197,4.0,13.0,71,0.00,,,0.01,,2013-03-10 18:42:00,
2013-03-10 14:52:00,60.0,50.0,29.79,SSE,165,3.0,8.0,69,0.00,,,0.01,,2013-03-10 18:52:00,
2013-03-10 15:01:00,60.0,49.0,29.78,SSW,192,6.0,11.0,68,0.00,,,0.01,,2013-03-10 19:01:00,
2013-03-10 15:11:00,60.0,49.0,29.78,SSW,192,6.0,11.0,68,0.00,,,0.01,,2013-03-10 19:11:00,
2013-03-10 15:21:00,61.0,49.0,29.76,SSE,157,5.0,13.0,65,0.00,,,0.01,,2013-03-10 19:21:00,
2013-03-10 15:32:00,60.0,49.0,29.75,SSW,198,4.0,14.0,66,0.00,,,0.00,,2013-03-10 19:32:00,
2013-03-10 15:42:00,60.0,49.0,29.75,SSW,198,4.0,14.0,66,0.00,,,0.00,,2013-03-10 19:42:00,
2013-03-10 15:52:00,61.0,50.0,29.74,SSW,194,5.0,10.0,66,0.00,,,0.00,,2013-03-10 19:52:00,
2013-03-10 16:02:00,61.0,50.0,29.75,SSW,193,4.0,9.0,66,0.00,,,0.00,,2013-03-10 20:02:00,
2013-03-10 16:12:00,61.0,50.0,29.75,SSW,193,4.0,9.0,66,0.00,,,0.00,,2013-03-10 20:12:00,
2013-03-10 16:22:00,60.0,48.0,29.74,SE,127,6.0,13.0,64,0.00,,,0.00,,2013-03-10 20:22:00,
2013-03-10 16:32:00,61.0,49.0,29.75,SSW,194,6.0,15.0,65,0.00,,,0.00,,2013-03-10 20:32:00,
2013-03-10 16:42:00,61.0,49.0,29.75,SSW,194,6.0,15.0,65,0.00,,,0.00,,2013-03-10 20:42:00,
2013-03-10 16:52:00,60.0,47.0,29.74,SSW,203,6.0,16.0,61,0.00,,,0.00,,2013-03-10 20:52:00,
2013-03-10 17:02:00,59.0,47.0,29.73,South,169,4.0,10.0,65,0.00,,,0.00,,2013-03-10 21:02:00,
2013-03-10 17:12:00,59.0,47.0,29.73,South,169,4.0,10.0,65,0.00,,,0.00,,2013-03-10 21:12:00,
2013-03-10 17:23:00,58.0,46.0,29.72,South,190,4.0,12.0,65,0.00,,,0.00,,2013-03-10 21:23:00,
2013-03-10 17:32:00,58.0,47.0,29.71,South,172,6.0,12.0,66,0.00,,,0.00,,2013-03-10 21:32:00,
2013-03-10 17:42:00,58.0,47.0,29.71,South,172,6.0,12.0,66,0.00,,,0.00,,2013-03-10 21:42:00,
2013-03-10 17:52:00,58.0,46.0,29.70,SSE,152,6.0,12.0,65,0.00,,,0.00,,2013-03-10 21:52:00,
2013-03-10 18:02:00,57.0,46.0,29.71,SW,214,4.0,8.0,67,0.00,,,0.00,,2013-03-10 22:02:00,
2013-03-10 18:12:00,57.0,46.0,29.71,SW,214,4.0,8.0,67,0.00,,,0.00,,2013-03-10 22:12:00,
2013-03-10 18:22:00,58.0,47.0,29.71,South,180,5.0,9.0,66,0.00,,,0.00,,2013-03-10 22:22:00,
2013-03-10 18:32:00,58.0,47.0,29.70,South,173,5.0,11.0,66,0.00,,,0.00,,2013-03-10 22:32:00,
2013-03-10 18:43:00,58.0,47.0,29.70,South,173,5.0,11.0,66,0.00,,,0.00,,2013-03-10 22:43:00,
2013-03-10 18:52:00,58.0,46.0,29.69,South,177,4.0,11.0,65,0.00,,,0.00,,2013-03-10 22:52:00,
2013-03-10 19:03:00,58.0,46.0,29.70,SSW,198,4.0,9.0,65,0.00,,,0.00,,2013-03-10 23:03:00,
2013-03-10 19:12:00,58.0,46.0,29.70,SSW,198,4.0,9.0,65,0.00,,,0.00,,2013-03-10 23:12:00,
2013-03-10 19:23:00,57.0,46.0,29.70,South,181,4.0,8.0,66,0.00,,,0.00,,2013-03-10 23:23:00,
2013-03-10 19:32:00,57.0,45.0,29.70,SSE,157,3.0,8.0,65,0.00,,,0.00,,2013-03-10 23:32:00,
2013-03-10 19:42:00,57.0,45.0,29.70,SSE,157,3.0,8.0,65,0.00,,,0.00,,2013-03-10 23:42:00,
2013-03-10 19:52:00,57.0,45.0,29.71,South,186,5.0,9.0,65,0.00,,,0.00,,2013-03-10 23:52:00,
2013-03-10 20:02:00,57.0,45.0,29.72,SSW,202,7.0,11.0,64,0.00,,,0.00,,2013-03-11 00:02:00,
2013-03-10 20:12:00,57.0,45.0,29.72,SSW,202,7.0,11.0,64,0.00,,,0.00,,2013-03-11 00:12:00,
2013-03-10 20:23:00,57.0,45.0,29.72,SSW,202,7.0,11.0,64,0.00,,,0.00,,2013-03-11 00:23:00,
2013-03-10 20:33:00,55.0,47.0,29.71,SSW,197,9.0,14.0,73,0.00,,,0.00,,2013-03-11 00:33:00,
2013-03-10 20:43:00,55.0,47.0,29.71,SSW,197,9.0,14.0,73,0.00,,,0.00,,2013-03-11 00:43:00,
2013-03-10 20:53:00,54.0,47.0,29.71,SSW,202,7.0,16.0,76,0.01,,,0.01,,2013-03-11 00:53:00,
2013-03-10 21:02:00,53.0,47.0,29.70,South,188,5.0,12.0,79,0.01,,,0.01,,2013-03-11 01:02:00,
2013-03-10 21:13:00,53.0,47.0,29.70,South,188,5.0,12.0,79,0.01,,,0.01,,2013-03-11 01:13:00,
2013-03-10 21:23:00,53.0,47.0,29.70,South,186,3.0,13.0,81,0.01,,,0.01,,2013-03-11 01:23:00,
2013-03-10 21:32:00,53.0,48.0,29.70,SSW,194,4.0,8.0,83,0.01,,,0.01,,2013-03-11 01:32:00,
2013-03-10 21:42:00,53.0,48.0,29.70,SSW,194,4.0,8.0,83,0.01,,,0.01,,2013-03-11 01:42:00,
2013-03-10 21:52:00,52.0,47.0,29.70,South,175,4.0,10.0,84,0.00,,,0.01,,2013-03-11 01:52:00,
2013-03-10 22:02:00,53.0,48.0,29.70,SSW,198,5.0,10.0,84,0.00,,,0.01,,2013-03-11 02:02:00,
2013-03-10 22:12:00,53.0,48.0,29.70,SSW,198,5.0,10.0,84,0.00,,,0.01,,2013-03-11 02:12:00,
2013-03-10 22:22:00,53.0,48.0,29.70,South,191,5.0,13.0,84,0.00,,,0.01,,2013-03-11 02:22:00,
2013-03-10 22:32:00,53.0,48.0,29.70,SSW,200,6.0,11.0,82,0.00,,,0.01,,2013-03-11 02:32:00,
2013-03-10 22:42:00,53.0,48.0,29.70,SSW,200,6.0,11.0,82,0.00,,,0.01,,2013-03-11 02:42:00,
2013-03-10 22:52:00,53.0,48.0,29.70,SSW,207,6.0,14.0,83,0.00,,,0.01,,2013-03-11 02:52:00,
2013-03-10 23:02:00,53.0,48.0,29.70,South,190,6.0,11.0,83,0.00,,,0.01,,2013-03-11 03:02:00,
2013-03-10 23:12:00,53.0,48.0,29.70,South,190,6.0,11.0,83,0.00,,,0.01,,2013-03-11 03:12:00,
2013-03-10 23:22:00,52.0,48.0,29.70,SSW,198,10.0,19.0,87,0.00,,,0.01,,2013-03-11 03:22:00,
2013-03-10 23:32:00,52.0,49.0,29.70,SSW,197,8.0,16.0,88,0.00,,,0.01,,2013-03-11 03:32:00,
2013-03-10 23:42:00,52.0,49.0,29.70,SSW,197,8.0,16.0,88,0.00,,,0.01,,2013-03-11 03:42:00,
2013-03-10 23:52:00,52.0,49.0,29.71,SW,218,9.0,16.0,90,0.00,,,0.01,,2013-03-11 03:52:00,